sensor_id;sensor_type;location;lat;lon;timestamp;pressure;altitude;pressure_sealevel;temperature;humidity
58753;BME280;44525;46.052;13.610;2022-07-23T00:01:56;100673.00;;;23.27;nan
58753;BME280;44525;46.052;13.610;2022-07-23T00:04:22;100676.78;;;23.38;nan
58753;BME280;44525;46.052;13.610;2022-07-23T00:06:47;100675.09;;;23.10;nan
58753;BME280;44525;46.052;13.610;2022-07-23T00:09:13;100680.13;;;23.08;nan
58753;BME280;44525;46.052;13.610;2022-07-23T00:11:39;100675.34;;;23.05;nan
58753;BME280;44525;46.052;13.610;2022-07-23T00:14:04;100679.78;;;22.90;nan
58753;BME280;44525;46.052;13.610;2022-07-23T00:16:30;100668.72;;;23.10;nan
58753;BME280;44525;46.052;13.610;2022-07-23T00:18:55;100676.38;;;23.17;nan
58753;BME280;44525;46.052;13.610;2022-07-23T00:21:21;100675.38;;;23.09;nan
58753;BME280;44525;46.052;13.610;2022-07-23T00:23:46;100675.41;;;22.89;nan
58753;BME280;44525;46.052;13.610;2022-07-23T00:26:12;100670.91;;;22.81;nan
58753;BME280;44525;46.052;13.610;2022-07-23T00:28:37;100675.84;;;22.91;nan
58753;BME280;44525;46.052;13.610;2022-07-23T00:31:03;100676.34;;;22.77;nan
58753;BME280;44525;46.052;13.610;2022-07-23T00:33:29;100674.31;;;22.74;nan
58753;BME280;44525;46.052;13.610;2022-07-23T00:35:54;100675.91;;;22.75;nan
58753;BME280;44525;46.052;13.610;2022-07-23T00:38:20;100672.22;;;22.87;nan
58753;BME280;44525;46.052;13.610;2022-07-23T00:40:45;100668.28;;;22.88;nan
58753;BME280;44525;46.052;13.610;2022-07-23T00:43:11;100677.16;;;22.78;nan
58753;BME280;44525;46.052;13.610;2022-07-23T00:45:36;100675.66;;;22.45;nan
58753;BME280;44525;46.052;13.610;2022-07-23T00:48:02;100671.44;;;22.51;nan
58753;BME280;44525;46.052;13.610;2022-07-23T00:50:28;100665.41;;;22.65;nan
58753;BME280;44525;46.052;13.610;2022-07-23T00:52:55;100675.19;;;22.78;nan
58753;BME280;44525;46.052;13.610;2022-07-23T00:55:20;100677.28;;;22.66;nan
58753;BME280;44525;46.052;13.610;2022-07-23T00:57:46;100664.84;;;22.56;nan
58753;BME280;44525;46.052;13.610;2022-07-23T01:00:14;100653.53;;;22.29;nan
58753;BME280;44525;46.052;13.610;2022-07-23T01:02:40;100660.16;;;22.08;nan
58753;BME280;44525;46.052;13.610;2022-07-23T01:05:07;100664.59;;;22.29;nan
58753;BME280;44525;46.052;13.610;2022-07-23T01:07:32;100657.66;;;22.19;nan
58753;BME280;44525;46.052;13.610;2022-07-23T01:09:58;100648.13;;;22.33;nan
58753;BME280;44525;46.052;13.610;2022-07-23T01:12:24;100644.97;;;22.34;nan
58753;BME280;44525;46.052;13.610;2022-07-23T01:14:56;100643.09;;;22.22;nan
58753;BME280;44525;46.052;13.610;2022-07-23T01:17:22;100639.25;;;22.27;nan
58753;BME280;44525;46.052;13.610;2022-07-23T01:19:47;100644.69;;;22.39;nan
58753;BME280;44525;46.052;13.610;2022-07-23T01:22:15;100636.91;;;22.29;nan
58753;BME280;44525;46.052;13.610;2022-07-23T01:24:43;100645.88;;;22.38;nan
58753;BME280;44525;46.052;13.610;2022-07-23T01:27:08;100635.53;;;22.35;nan
58753;BME280;44525;46.052;13.610;2022-07-23T01:29:34;100632.09;;;22.26;nan
58753;BME280;44525;46.052;13.610;2022-07-23T01:31:59;100632.50;;;22.08;nan
58753;BME280;44525;46.052;13.610;2022-07-23T01:34:25;100633.16;;;22.02;nan
58753;BME280;44525;46.052;13.610;2022-07-23T01:36:50;100621.56;;;21.96;nan
58753;BME280;44525;46.052;13.610;2022-07-23T01:39:15;100631.72;;;21.92;nan
58753;BME280;44525;46.052;13.610;2022-07-23T01:41:41;100629.69;;;21.89;nan
58753;BME280;44525;46.052;13.610;2022-07-23T01:44:06;100628.63;;;21.78;nan
58753;BME280;44525;46.052;13.610;2022-07-23T01:46:32;100624.69;;;21.79;nan
58753;BME280;44525;46.052;13.610;2022-07-23T01:48:57;100632.44;;;21.73;nan
58753;BME280;44525;46.052;13.610;2022-07-23T01:51:23;100628.19;;;21.76;nan
58753;BME280;44525;46.052;13.610;2022-07-23T01:53:49;100633.00;;;21.79;nan
58753;BME280;44525;46.052;13.610;2022-07-23T01:56:14;100631.03;;;21.63;nan
58753;BME280;44525;46.052;13.610;2022-07-23T01:58:40;100626.06;;;21.53;nan
58753;BME280;44525;46.052;13.610;2022-07-23T02:01:06;100621.75;;;21.71;nan
58753;BME280;44525;46.052;13.610;2022-07-23T02:03:31;100628.63;;;21.78;nan
58753;BME280;44525;46.052;13.610;2022-07-23T02:05:57;100630.41;;;21.86;nan
58753;BME280;44525;46.052;13.610;2022-07-23T02:08:22;100634.16;;;21.78;nan
58753;BME280;44525;46.052;13.610;2022-07-23T02:10:48;100632.50;;;21.45;nan
58753;BME280;44525;46.052;13.610;2022-07-23T02:13:16;100628.41;;;21.38;nan
58753;BME280;44525;46.052;13.610;2022-07-23T02:15:42;100623.69;;;21.23;nan
58753;BME280;44525;46.052;13.610;2022-07-23T02:18:07;100617.69;;;21.21;nan
58753;BME280;44525;46.052;13.610;2022-07-23T02:20:33;100621.16;;;21.18;nan
58753;BME280;44525;46.052;13.610;2022-07-23T02:22:59;100619.19;;;21.02;nan
58753;BME280;44525;46.052;13.610;2022-07-23T02:25:24;100622.66;;;20.99;nan
58753;BME280;44525;46.052;13.610;2022-07-23T02:27:50;100620.91;;;21.23;nan
58753;BME280;44525;46.052;13.610;2022-07-23T02:30:15;100615.50;;;21.43;nan
58753;BME280;44525;46.052;13.610;2022-07-23T02:32:41;100620.56;;;21.41;nan
58753;BME280;44525;46.052;13.610;2022-07-23T02:35:06;100617.34;;;21.38;nan
58753;BME280;44525;46.052;13.610;2022-07-23T02:37:32;100620.75;;;21.48;nan
58753;BME280;44525;46.052;13.610;2022-07-23T02:39:58;100615.66;;;21.34;nan
58753;BME280;44525;46.052;13.610;2022-07-23T02:42:24;100619.50;;;21.29;nan
58753;BME280;44525;46.052;13.610;2022-07-23T02:44:50;100626.06;;;21.09;nan
58753;BME280;44525;46.052;13.610;2022-07-23T02:47:16;100630.44;;;21.26;nan
58753;BME280;44525;46.052;13.610;2022-07-23T02:49:41;100634.47;;;21.28;nan
58753;BME280;44525;46.052;13.610;2022-07-23T02:52:07;100638.56;;;21.34;nan
58753;BME280;44525;46.052;13.610;2022-07-23T02:54:36;100643.44;;;21.53;nan
58753;BME280;44525;46.052;13.610;2022-07-23T02:57:01;100644.56;;;21.36;nan
58753;BME280;44525;46.052;13.610;2022-07-23T02:59:27;100636.97;;;21.33;nan
58753;BME280;44525;46.052;13.610;2022-07-23T03:01:52;100644.19;;;21.38;nan
58753;BME280;44525;46.052;13.610;2022-07-23T03:04:18;100640.88;;;21.32;nan
58753;BME280;44525;46.052;13.610;2022-07-23T03:06:43;100644.91;;;21.07;nan
58753;BME280;44525;46.052;13.610;2022-07-23T03:09:09;100653.25;;;20.94;nan
58753;BME280;44525;46.052;13.610;2022-07-23T03:11:34;100654.38;;;21.06;nan
58753;BME280;44525;46.052;13.610;2022-07-23T03:14:00;100657.94;;;21.06;nan
58753;BME280;44525;46.052;13.610;2022-07-23T03:16:25;100653.97;;;20.91;nan
58753;BME280;44525;46.052;13.610;2022-07-23T03:18:51;100656.44;;;21.09;nan
58753;BME280;44525;46.052;13.610;2022-07-23T03:21:17;100659.41;;;21.16;nan
58753;BME280;44525;46.052;13.610;2022-07-23T03:23:42;100665.91;;;21.24;nan
58753;BME280;44525;46.052;13.610;2022-07-23T03:26:08;100665.56;;;21.25;nan
58753;BME280;44525;46.052;13.610;2022-07-23T03:28:33;100664.91;;;21.16;nan
58753;BME280;44525;46.052;13.610;2022-07-23T03:30:59;100669.47;;;21.24;nan
58753;BME280;44525;46.052;13.610;2022-07-23T03:33:24;100662.19;;;21.03;nan
58753;BME280;44525;46.052;13.610;2022-07-23T03:35:49;100663.53;;;20.94;nan
58753;BME280;44525;46.052;13.610;2022-07-23T03:38:15;100671.31;;;21.04;nan
58753;BME280;44525;46.052;13.610;2022-07-23T03:40:41;100669.84;;;20.94;nan
58753;BME280;44525;46.052;13.610;2022-07-23T03:43:07;100675.06;;;21.12;nan
58753;BME280;44525;46.052;13.610;2022-07-23T03:45:32;100670.94;;;21.06;nan
58753;BME280;44525;46.052;13.610;2022-07-23T03:47:58;100669.25;;;21.01;nan
58753;BME280;44525;46.052;13.610;2022-07-23T03:50:24;100674.56;;;20.94;nan
58753;BME280;44525;46.052;13.610;2022-07-23T03:52:50;100658.78;;;20.94;nan
58753;BME280;44525;46.052;13.610;2022-07-23T03:55:15;100666.13;;;21.02;nan
58753;BME280;44525;46.052;13.610;2022-07-23T03:57:41;100663.59;;;20.97;nan
58753;BME280;44525;46.052;13.610;2022-07-23T04:00:08;100661.66;;;20.98;nan
58753;BME280;44525;46.052;13.610;2022-07-23T04:02:37;100657.28;;;20.97;nan
58753;BME280;44525;46.052;13.610;2022-07-23T04:05:03;100655.81;;;20.87;nan
58753;BME280;44525;46.052;13.610;2022-07-23T04:07:29;100655.16;;;20.78;nan
58753;BME280;44525;46.052;13.610;2022-07-23T04:09:55;100662.69;;;20.93;nan
58753;BME280;44525;46.052;13.610;2022-07-23T04:12:21;100663.44;;;21.06;nan
58753;BME280;44525;46.052;13.610;2022-07-23T04:14:46;100655.22;;;20.94;nan
58753;BME280;44525;46.052;13.610;2022-07-23T04:17:12;100658.78;;;20.94;nan
58753;BME280;44525;46.052;13.610;2022-07-23T04:19:38;100658.28;;;20.76;nan
58753;BME280;44525;46.052;13.610;2022-07-23T04:22:06;100654.47;;;20.81;nan
58753;BME280;44525;46.052;13.610;2022-07-23T04:24:31;100658.72;;;20.78;nan
58753;BME280;44525;46.052;13.610;2022-07-23T04:26:57;100659.06;;;20.89;nan
58753;BME280;44525;46.052;13.610;2022-07-23T04:29:23;100662.25;;;20.91;nan
58753;BME280;44525;46.052;13.610;2022-07-23T04:31:48;100654.56;;;20.84;nan
58753;BME280;44525;46.052;13.610;2022-07-23T04:34:14;100664.00;;;20.83;nan
58753;BME280;44525;46.052;13.610;2022-07-23T04:36:39;100658.03;;;21.10;nan
58753;BME280;44525;46.052;13.610;2022-07-23T04:39:05;100661.59;;;21.10;nan
58753;BME280;44525;46.052;13.610;2022-07-23T04:41:30;100653.66;;;21.09;nan
58753;BME280;44525;46.052;13.610;2022-07-23T04:43:56;100656.16;;;21.14;nan
58753;BME280;44525;46.052;13.610;2022-07-23T04:46:21;100652.19;;;21.27;nan
58753;BME280;44525;46.052;13.610;2022-07-23T04:48:47;100646.50;;;21.36;nan
58753;BME280;44525;46.052;13.610;2022-07-23T04:51:13;100647.19;;;21.33;nan
58753;BME280;44525;46.052;13.610;2022-07-23T04:53:38;100653.13;;;21.47;nan
58753;BME280;44525;46.052;13.610;2022-07-23T04:56:04;100652.81;;;21.65;nan
58753;BME280;44525;46.052;13.610;2022-07-23T04:58:29;100651.81;;;21.57;nan
58753;BME280;44525;46.052;13.610;2022-07-23T05:00:57;100653.59;;;21.65;nan
58753;BME280;44525;46.052;13.610;2022-07-23T05:03:23;100648.59;;;21.87;nan
58753;BME280;44525;46.052;13.610;2022-07-23T05:05:49;100642.78;;;22.08;nan
58753;BME280;44525;46.052;13.610;2022-07-23T05:08:14;100645.72;;;22.15;nan
58753;BME280;44525;46.052;13.610;2022-07-23T05:10:40;100646.03;;;22.30;nan
58753;BME280;44525;46.052;13.610;2022-07-23T05:13:06;100640.34;;;22.22;nan
58753;BME280;44525;46.052;13.610;2022-07-23T05:15:31;100643.16;;;22.42;nan
58753;BME280;44525;46.052;13.610;2022-07-23T05:17:57;100630.75;;;22.71;nan
58753;BME280;44525;46.052;13.610;2022-07-23T05:20:22;100634.97;;;22.85;nan
58753;BME280;44525;46.052;13.610;2022-07-23T05:22:48;100632.84;;;22.98;nan
58753;BME280;44525;46.052;13.610;2022-07-23T05:25:13;100637.56;;;22.97;nan
58753;BME280;44525;46.052;13.610;2022-07-23T05:27:39;100639.38;;;23.09;nan
58753;BME280;44525;46.052;13.610;2022-07-23T05:30:05;100642.25;;;23.12;nan
58753;BME280;44525;46.052;13.610;2022-07-23T05:32:33;100635.81;;;23.28;nan
58753;BME280;44525;46.052;13.610;2022-07-23T05:34:59;100635.28;;;23.42;nan
58753;BME280;44525;46.052;13.610;2022-07-23T05:37:24;100640.13;;;23.48;nan
58753;BME280;44525;46.052;13.610;2022-07-23T05:39:50;100636.25;;;23.76;nan
58753;BME280;44525;46.052;13.610;2022-07-23T05:42:16;100630.09;;;23.87;nan
58753;BME280;44525;46.052;13.610;2022-07-23T05:44:41;100637.78;;;23.97;nan
58753;BME280;44525;46.052;13.610;2022-07-23T05:47:06;100630.34;;;24.31;nan
58753;BME280;44525;46.052;13.610;2022-07-23T05:49:32;100636.81;;;24.39;nan
58753;BME280;44525;46.052;13.610;2022-07-23T05:51:57;100634.59;;;24.52;nan
58753;BME280;44525;46.052;13.610;2022-07-23T05:54:24;100642.75;;;24.68;nan
58753;BME280;44525;46.052;13.610;2022-07-23T05:56:49;100636.53;;;24.78;nan
58753;BME280;44525;46.052;13.610;2022-07-23T05:59:15;100635.19;;;24.99;nan
58753;BME280;44525;46.052;13.610;2022-07-23T06:01:41;100636.78;;;25.00;nan
58753;BME280;44525;46.052;13.610;2022-07-23T06:04:07;100634.22;;;25.21;nan
58753;BME280;44525;46.052;13.610;2022-07-23T06:06:33;100642.56;;;25.59;nan
58753;BME280;44525;46.052;13.610;2022-07-23T06:08:58;100649.09;;;25.81;nan
58753;BME280;44525;46.052;13.610;2022-07-23T06:11:24;100645.69;;;26.02;nan
58753;BME280;44525;46.052;13.610;2022-07-23T06:13:49;100644.53;;;26.07;nan
58753;BME280;44525;46.052;13.610;2022-07-23T06:16:15;100654.19;;;26.24;nan
58753;BME280;44525;46.052;13.610;2022-07-23T06:18:40;100653.94;;;26.51;nan
58753;BME280;44525;46.052;13.610;2022-07-23T06:21:06;100655.56;;;26.55;nan
58753;BME280;44525;46.052;13.610;2022-07-23T06:23:33;100655.06;;;26.39;nan
58753;BME280;44525;46.052;13.610;2022-07-23T06:25:58;100650.75;;;26.52;nan
58753;BME280;44525;46.052;13.610;2022-07-23T06:28:23;100656.41;;;26.67;nan
58753;BME280;44525;46.052;13.610;2022-07-23T06:30:49;100661.50;;;26.50;nan
58753;BME280;44525;46.052;13.610;2022-07-23T06:33:15;100662.66;;;26.42;nan
58753;BME280;44525;46.052;13.610;2022-07-23T06:35:40;100653.94;;;26.54;nan
58753;BME280;44525;46.052;13.610;2022-07-23T06:38:06;100653.31;;;26.83;nan
58753;BME280;44525;46.052;13.610;2022-07-23T06:40:31;100660.16;;;27.10;nan
58753;BME280;44525;46.052;13.610;2022-07-23T06:42:57;100656.28;;;27.55;nan
58753;BME280;44525;46.052;13.610;2022-07-23T06:45:22;100658.66;;;27.96;nan
58753;BME280;44525;46.052;13.610;2022-07-23T06:47:49;100665.47;;;28.09;nan
58753;BME280;44525;46.052;13.610;2022-07-23T06:50:14;100657.44;;;28.29;nan
58753;BME280;44525;46.052;13.610;2022-07-23T06:52:40;100664.53;;;28.74;nan
58753;BME280;44525;46.052;13.610;2022-07-23T06:55:05;100653.81;;;29.35;nan
58753;BME280;44525;46.052;13.610;2022-07-23T06:57:31;100649.69;;;29.54;nan
58753;BME280;44525;46.052;13.610;2022-07-23T06:59:56;100652.94;;;29.98;nan
58753;BME280;44525;46.052;13.610;2022-07-23T07:02:22;100647.41;;;30.29;nan
58753;BME280;44525;46.052;13.610;2022-07-23T07:04:49;100644.19;;;30.31;nan
58753;BME280;44525;46.052;13.610;2022-07-23T07:07:14;100640.69;;;30.57;nan
58753;BME280;44525;46.052;13.610;2022-07-23T07:09:40;100641.47;;;29.85;nan
58753;BME280;44525;46.052;13.610;2022-07-23T07:12:05;100647.97;;;29.68;nan
58753;BME280;44525;46.052;13.610;2022-07-23T07:14:31;100642.69;;;29.28;nan
58753;BME280;44525;46.052;13.610;2022-07-23T07:16:57;100634.84;;;29.01;nan
58753;BME280;44525;46.052;13.610;2022-07-23T07:19:22;100629.31;;;28.87;nan
58753;BME280;44525;46.052;13.610;2022-07-23T07:21:48;100623.84;;;28.55;nan
58753;BME280;44525;46.052;13.610;2022-07-23T07:24:13;100620.22;;;28.72;nan
58753;BME280;44525;46.052;13.610;2022-07-23T07:26:39;100627.59;;;29.08;nan
58753;BME280;44525;46.052;13.610;2022-07-23T07:29:06;100625.31;;;28.88;nan
58753;BME280;44525;46.052;13.610;2022-07-23T07:31:31;100621.16;;;29.18;nan
58753;BME280;44525;46.052;13.610;2022-07-23T07:33:58;100620.72;;;29.23;nan
58753;BME280;44525;46.052;13.610;2022-07-23T07:36:23;100620.31;;;29.25;nan
58753;BME280;44525;46.052;13.610;2022-07-23T07:38:49;100623.34;;;29.48;nan
58753;BME280;44525;46.052;13.610;2022-07-23T07:41:14;100627.63;;;29.64;nan
58753;BME280;44525;46.052;13.610;2022-07-23T07:43:41;100622.72;;;29.75;nan
58753;BME280;44525;46.052;13.610;2022-07-23T07:46:06;100629.53;;;29.70;nan
58753;BME280;44525;46.052;13.610;2022-07-23T07:48:36;100630.53;;;29.98;nan
58753;BME280;44525;46.052;13.610;2022-07-23T07:51:02;100621.91;;;30.20;nan
58753;BME280;44525;46.052;13.610;2022-07-23T07:53:28;100621.69;;;30.38;nan
58753;BME280;44525;46.052;13.610;2022-07-23T07:55:54;100624.84;;;30.43;nan
58753;BME280;44525;46.052;13.610;2022-07-23T07:58:19;100622.66;;;30.24;nan
58753;BME280;44525;46.052;13.610;2022-07-23T08:00:44;100629.75;;;30.32;nan
58753;BME280;44525;46.052;13.610;2022-07-23T08:03:10;100629.63;;;30.47;nan
58753;BME280;44525;46.052;13.610;2022-07-23T08:05:36;100632.28;;;30.88;nan
58753;BME280;44525;46.052;13.610;2022-07-23T08:08:01;100627.22;;;31.34;nan
58753;BME280;44525;46.052;13.610;2022-07-23T08:10:28;100616.63;;;30.91;nan
58753;BME280;44525;46.052;13.610;2022-07-23T08:12:56;100623.50;;;30.55;nan
58753;BME280;44525;46.052;13.610;2022-07-23T08:15:22;100615.47;;;30.57;nan
58753;BME280;44525;46.052;13.610;2022-07-23T08:17:49;100622.41;;;30.46;nan
58753;BME280;44525;46.052;13.610;2022-07-23T08:20:17;100627.50;;;30.58;nan
58753;BME280;44525;46.052;13.610;2022-07-23T08:22:51;100624.13;;;31.01;nan
58753;BME280;44525;46.052;13.610;2022-07-23T08:25:36;100617.41;;;30.91;nan
58753;BME280;44525;46.052;13.610;2022-07-23T08:28:04;100606.59;;;30.93;nan
58753;BME280;44525;46.052;13.610;2022-07-23T08:30:31;100608.34;;;31.38;nan
58753;BME280;44525;46.052;13.610;2022-07-23T08:33:02;100604.81;;;31.58;nan
58753;BME280;44525;46.052;13.610;2022-07-23T08:35:33;100604.91;;;31.51;nan
58753;BME280;44525;46.052;13.610;2022-07-23T08:38:00;100600.03;;;31.58;nan
58753;BME280;44525;46.052;13.610;2022-07-23T08:40:28;100592.72;;;31.84;nan
58753;BME280;44525;46.052;13.610;2022-07-23T08:42:54;100591.97;;;32.04;nan
58753;BME280;44525;46.052;13.610;2022-07-23T08:45:21;100589.22;;;32.81;nan
58753;BME280;44525;46.052;13.610;2022-07-23T08:47:51;100579.13;;;33.00;nan
58753;BME280;44525;46.052;13.610;2022-07-23T08:50:18;100576.81;;;32.95;nan
58753;BME280;44525;46.052;13.610;2022-07-23T08:52:43;100573.84;;;32.65;nan
58753;BME280;44525;46.052;13.610;2022-07-23T08:55:09;100575.44;;;32.86;nan
58753;BME280;44525;46.052;13.610;2022-07-23T08:57:35;100569.78;;;32.30;nan
58753;BME280;44525;46.052;13.610;2022-07-23T09:00:01;100570.56;;;32.50;nan
58753;BME280;44525;46.052;13.610;2022-07-23T09:02:26;100568.88;;;32.73;nan
58753;BME280;44525;46.052;13.610;2022-07-23T09:04:52;100559.50;;;32.96;nan
58753;BME280;44525;46.052;13.610;2022-07-23T09:07:18;100559.69;;;33.05;nan
58753;BME280;44525;46.052;13.610;2022-07-23T09:09:43;100553.81;;;33.16;nan
58753;BME280;44525;46.052;13.610;2022-07-23T09:12:10;100555.47;;;33.47;nan
58753;BME280;44525;46.052;13.610;2022-07-23T09:14:43;100550.75;;;33.89;nan
58753;BME280;44525;46.052;13.610;2022-07-23T09:17:18;100552.13;;;34.40;nan
58753;BME280;44525;46.052;13.610;2022-07-23T09:19:45;100550.81;;;34.70;nan
58753;BME280;44525;46.052;13.610;2022-07-23T09:30:19;100545.22;;;35.44;nan
58753;BME280;44525;46.052;13.610;2022-07-23T09:33:04;100549.72;;;34.93;nan
58753;BME280;44525;46.052;13.610;2022-07-23T09:36:01;100535.47;;;34.58;nan
58753;BME280;44525;46.052;13.610;2022-07-23T09:38:26;100537.50;;;34.58;nan
58753;BME280;44525;46.052;13.610;2022-07-23T09:41:10;100543.03;;;34.87;nan
58753;BME280;44525;46.052;13.610;2022-07-23T09:43:37;100550.34;;;35.23;nan
58753;BME280;44525;46.052;13.610;2022-07-23T09:46:27;100539.28;;;35.64;nan
58753;BME280;44525;46.052;13.610;2022-07-23T09:48:54;100528.16;;;35.82;nan
58753;BME280;44525;46.052;13.610;2022-07-23T09:51:22;100537.00;;;35.72;nan
58753;BME280;44525;46.052;13.610;2022-07-23T09:53:55;100531.13;;;35.79;nan
58753;BME280;44525;46.052;13.610;2022-07-23T09:56:20;100521.50;;;35.98;nan
58753;BME280;44525;46.052;13.610;2022-07-23T09:58:49;100511.50;;;36.07;nan
58753;BME280;44525;46.052;13.610;2022-07-23T10:01:15;100526.19;;;35.92;nan
58753;BME280;44525;46.052;13.610;2022-07-23T10:03:42;100515.59;;;36.06;nan
58753;BME280;44525;46.052;13.610;2022-07-23T10:06:12;100520.19;;;36.44;nan
58753;BME280;44525;46.052;13.610;2022-07-23T10:08:41;100513.69;;;36.56;nan
58753;BME280;44525;46.052;13.610;2022-07-23T10:11:10;100508.97;;;36.62;nan
58753;BME280;44525;46.052;13.610;2022-07-23T10:13:38;100519.13;;;36.82;nan
58753;BME280;44525;46.052;13.610;2022-07-23T10:16:13;100511.91;;;36.81;nan
58753;BME280;44525;46.052;13.610;2022-07-23T10:18:38;100511.59;;;36.88;nan
58753;BME280;44525;46.052;13.610;2022-07-23T10:21:07;100507.69;;;36.95;nan
58753;BME280;44525;46.052;13.610;2022-07-23T10:23:51;100511.16;;;36.99;nan
58753;BME280;44525;46.052;13.610;2022-07-23T10:26:43;100507.25;;;37.15;nan
58753;BME280;44525;46.052;13.610;2022-07-23T10:29:13;100506.13;;;37.03;nan
58753;BME280;44525;46.052;13.610;2022-07-23T10:32:02;100500.97;;;37.20;nan
58753;BME280;44525;46.052;13.610;2022-07-23T10:34:41;100504.22;;;36.91;nan
58753;BME280;44525;46.052;13.610;2022-07-23T10:39:41;100497.00;;;36.90;nan
58753;BME280;44525;46.052;13.610;2022-07-23T10:44:55;100496.25;;;37.26;nan
58753;BME280;44525;46.052;13.610;2022-07-23T10:47:27;100494.06;;;37.30;nan
58753;BME280;44525;46.052;13.610;2022-07-23T10:50:37;100490.59;;;37.26;nan
58753;BME280;44525;46.052;13.610;2022-07-23T10:57:57;100474.84;;;37.71;nan
58753;BME280;44525;46.052;13.610;2022-07-23T11:00:27;100469.16;;;37.99;nan
58753;BME280;44525;46.052;13.610;2022-07-23T11:03:00;100474.44;;;38.16;nan
58753;BME280;44525;46.052;13.610;2022-07-23T11:05:47;100470.34;;;38.26;nan
58753;BME280;44525;46.052;13.610;2022-07-23T11:08:17;100474.41;;;38.34;nan
58753;BME280;44525;46.052;13.610;2022-07-23T11:11:07;100464.81;;;38.22;nan
58753;BME280;44525;46.052;13.610;2022-07-23T11:16:07;100458.28;;;38.74;nan
58753;BME280;44525;46.052;13.610;2022-07-23T11:26:58;100453.53;;;38.80;nan
58753;BME280;44525;46.052;13.610;2022-07-23T11:32:24;100452.66;;;38.65;nan
58753;BME280;44525;46.052;13.610;2022-07-23T11:34:51;100440.88;;;38.57;nan
58753;BME280;44525;46.052;13.610;2022-07-23T11:37:37;100438.25;;;38.77;nan
58753;BME280;44525;46.052;13.610;2022-07-23T11:40:07;100441.53;;;39.24;nan
58753;BME280;44525;46.052;13.610;2022-07-23T11:42:35;100438.00;;;39.15;nan
58753;BME280;44525;46.052;13.610;2022-07-23T11:45:01;100443.44;;;39.03;nan
58753;BME280;44525;46.052;13.610;2022-07-23T11:47:26;100438.25;;;39.26;nan
58753;BME280;44525;46.052;13.610;2022-07-23T11:49:57;100426.91;;;39.41;nan
58753;BME280;44525;46.052;13.610;2022-07-23T11:52:24;100423.66;;;39.48;nan
58753;BME280;44525;46.052;13.610;2022-07-23T11:54:55;100421.00;;;39.44;nan
58753;BME280;44525;46.052;13.610;2022-07-23T11:57:28;100424.44;;;39.09;nan
58753;BME280;44525;46.052;13.610;2022-07-23T12:00:09;100426.38;;;39.03;nan
58753;BME280;44525;46.052;13.610;2022-07-23T12:02:37;100418.91;;;38.91;nan
58753;BME280;44525;46.052;13.610;2022-07-23T12:05:03;100412.72;;;39.17;nan
58753;BME280;44525;46.052;13.610;2022-07-23T12:07:36;100418.63;;;39.28;nan
58753;BME280;44525;46.052;13.610;2022-07-23T12:10:26;100415.91;;;39.09;nan
58753;BME280;44525;46.052;13.610;2022-07-23T12:12:54;100410.97;;;39.19;nan
58753;BME280;44525;46.052;13.610;2022-07-23T12:15:24;100434.13;;;39.42;nan
58753;BME280;44525;46.052;13.610;2022-07-23T12:17:51;100415.91;;;39.09;nan
58753;BME280;44525;46.052;13.610;2022-07-23T12:20:30;100416.75;;;38.86;nan
58753;BME280;44525;46.052;13.610;2022-07-23T12:22:58;100407.78;;;38.54;nan
58753;BME280;44525;46.052;13.610;2022-07-23T12:25:27;100418.94;;;38.57;nan
58753;BME280;44525;46.052;13.610;2022-07-23T12:28:06;100411.41;;;38.78;nan
58753;BME280;44525;46.052;13.610;2022-07-23T12:30:44;100412.13;;;38.64;nan
58753;BME280;44525;46.052;13.610;2022-07-23T12:33:12;100408.56;;;38.54;nan
58753;BME280;44525;46.052;13.610;2022-07-23T12:35:44;100406.38;;;38.16;nan
58753;BME280;44525;46.052;13.610;2022-07-23T12:38:12;100404.56;;;38.03;nan
58753;BME280;44525;46.052;13.610;2022-07-23T12:40:45;100403.25;;;38.14;nan
58753;BME280;44525;46.052;13.610;2022-07-23T12:43:22;100400.72;;;38.49;nan
58753;BME280;44525;46.052;13.610;2022-07-23T12:45:52;100398.00;;;38.55;nan
58753;BME280;44525;46.052;13.610;2022-07-23T12:48:19;100399.94;;;38.49;nan
58753;BME280;44525;46.052;13.610;2022-07-23T12:53:17;100395.69;;;38.20;nan
58753;BME280;44525;46.052;13.610;2022-07-23T12:55:44;100390.97;;;38.07;nan
58753;BME280;44525;46.052;13.610;2022-07-23T13:01:10;100379.25;;;38.24;nan
58753;BME280;44525;46.052;13.610;2022-07-23T13:04:06;100386.50;;;37.82;nan
58753;BME280;44525;46.052;13.610;2022-07-23T13:06:37;100379.00;;;37.61;nan
58753;BME280;44525;46.052;13.610;2022-07-23T13:09:06;100381.66;;;37.64;nan
58753;BME280;44525;46.052;13.610;2022-07-23T13:11:33;100378.63;;;37.68;nan
58753;BME280;44525;46.052;13.610;2022-07-23T13:13:59;100383.50;;;37.86;nan
58753;BME280;44525;46.052;13.610;2022-07-23T13:16:27;100376.19;;;38.03;nan
58753;BME280;44525;46.052;13.610;2022-07-23T13:18:53;100374.19;;;38.28;nan
58753;BME280;44525;46.052;13.610;2022-07-23T13:21:19;100373.91;;;38.26;nan
58753;BME280;44525;46.052;13.610;2022-07-23T13:23:44;100370.38;;;38.31;nan
58753;BME280;44525;46.052;13.610;2022-07-23T13:26:10;100368.84;;;38.30;nan
58753;BME280;44525;46.052;13.610;2022-07-23T13:28:35;100368.16;;;38.02;nan
58753;BME280;44525;46.052;13.610;2022-07-23T13:31:01;100373.50;;;37.48;nan
58753;BME280;44525;46.052;13.610;2022-07-23T13:33:26;100376.47;;;37.44;nan
58753;BME280;44525;46.052;13.610;2022-07-23T13:35:52;100381.69;;;37.36;nan
58753;BME280;44525;46.052;13.610;2022-07-23T13:38:19;100375.09;;;37.49;nan
58753;BME280;44525;46.052;13.610;2022-07-23T13:40:47;100379.94;;;36.74;nan